createdAt,value
2017-03-09T00:00:05.712Z,0
2017-03-09T00:01:06.067Z,0
2017-03-09T00:02:06.523Z,0
2017-03-09T00:03:06.533Z,0
2017-03-09T00:04:06.444Z,0
2017-03-09T00:05:06.371Z,0
2017-03-09T00:06:05.952Z,0
2017-03-09T00:07:06.353Z,0
2017-03-09T00:08:05.512Z,0
2017-03-09T00:09:06.320Z,0
2017-03-09T00:10:06.269Z,0
2017-03-09T00:11:05.457Z,0
2017-03-09T00:12:05.841Z,0
2017-03-09T00:13:05.819Z,0
2017-03-09T00:14:05.798Z,0
2017-03-09T00:15:05.758Z,0
2017-03-09T00:16:05.736Z,0
2017-03-09T00:17:05.720Z,0
2017-03-09T00:18:05.725Z,0
2017-03-09T00:19:05.705Z,0
2017-03-09T00:20:05.246Z,0
2017-03-09T00:21:05.250Z,0
2017-03-09T00:22:05.726Z,0
2017-03-09T00:23:05.593Z,0
2017-03-09T00:24:05.211Z,0
2017-03-09T00:25:05.597Z,0
2017-03-09T00:26:05.914Z,0
2017-03-09T00:27:05.904Z,0
2017-03-09T00:28:05.470Z,0
2017-03-09T00:29:05.899Z,0
2017-03-09T00:30:05.850Z,0
2017-03-09T00:31:05.112Z,0
2017-03-09T00:32:05.781Z,0
2017-03-09T00:33:05.785Z,0
2017-03-09T00:34:05.374Z,0
2017-03-09T00:35:04.945Z,0
2017-03-09T00:36:04.138Z,0
2017-03-09T00:37:04.904Z,0
2017-03-09T00:38:05.642Z,0
2017-03-09T00:39:05.255Z,0
2017-03-09T00:40:05.233Z,0
2017-03-09T00:41:05.245Z,0
2017-03-09T00:42:05.592Z,0
2017-03-09T00:43:04.771Z,0
2017-03-09T00:44:05.516Z,0
2017-03-09T00:45:04.705Z,0
2017-03-09T00:46:05.530Z,0
2017-03-09T00:47:04.712Z,0
2017-03-09T00:48:04.672Z,0
2017-03-09T00:49:05.024Z,0
2017-03-09T00:50:05.007Z,0
2017-03-09T00:51:05.021Z,0
2017-03-09T00:52:05.387Z,0
2017-03-09T00:53:04.678Z,0
2017-03-09T00:54:04.137Z,0
2017-03-09T00:55:04.632Z,0
2017-03-09T00:56:05.270Z,0
2017-03-09T00:57:04.474Z,0
2017-03-09T00:58:04.824Z,0
2017-03-09T00:59:04.803Z,0
2017-03-09T01:00:05.173Z,0
2017-03-09T01:01:05.163Z,0
2017-03-09T01:02:04.749Z,0
2017-03-09T01:03:05.106Z,0
2017-03-09T01:04:04.765Z,0
2017-03-09T01:05:04.713Z,0
2017-03-09T01:06:04.277Z,0
2017-03-09T01:07:05.069Z,0
2017-03-09T01:08:04.634Z,0
2017-03-09T01:09:04.589Z,0
2017-03-09T01:10:03.845Z,0
2017-03-09T01:11:04.945Z,0
2017-03-09T01:12:04.170Z,0
2017-03-09T01:13:04.115Z,0
2017-03-09T01:14:04.560Z,0
2017-03-09T01:15:03.693Z,0
2017-03-09T01:16:04.547Z,0
2017-03-09T01:17:04.815Z,0
2017-03-09T01:18:04.418Z,0
2017-03-09T01:19:04.784Z,0
2017-03-09T01:20:03.211Z,0
2017-03-09T01:21:03.571Z,0
2017-03-09T01:22:04.695Z,0
2017-03-09T01:23:03.953Z,0
2017-03-09T01:24:04.422Z,0
2017-03-09T01:25:03.091Z,0
2017-03-09T01:26:04.243Z,0
2017-03-09T01:27:03.795Z,0
2017-03-09T01:28:04.609Z,0
2017-03-09T01:29:03.767Z,0
2017-03-09T01:30:04.167Z,0
2017-03-09T01:31:03.752Z,0
2017-03-09T01:32:03.783Z,0
2017-03-09T01:33:04.096Z,0
2017-03-09T01:34:04.080Z,0
2017-03-09T01:35:03.655Z,0
2017-03-09T01:36:04.539Z,0
2017-03-09T01:37:03.630Z,0
2017-03-09T01:38:04.006Z,0
2017-03-09T01:39:03.958Z,0
2017-03-09T01:40:03.932Z,0
2017-03-09T01:41:03.960Z,0
2017-03-09T01:42:04.050Z,0
2017-03-09T01:43:03.879Z,0
2017-03-09T01:44:03.512Z,0
2017-03-09T01:45:03.061Z,0
2017-03-09T01:46:03.108Z,0
2017-03-09T01:47:03.411Z,0
2017-03-09T01:48:03.757Z,0
2017-03-09T01:49:03.358Z,0
2017-03-09T01:50:03.737Z,0
2017-03-09T01:51:04.156Z,0
2017-03-09T01:52:03.662Z,0
2017-03-09T01:53:03.628Z,0
2017-03-09T01:54:03.286Z,0
2017-03-09T01:55:03.273Z,0
2017-03-09T01:56:03.207Z,0
2017-03-09T01:57:03.537Z,0
2017-03-09T01:58:03.524Z,0
2017-03-09T01:59:03.516Z,0
2017-03-09T02:00:03.107Z,0
2017-03-09T02:01:03.593Z,0
2017-03-09T02:02:03.550Z,0
2017-03-09T02:03:03.450Z,0
2017-03-09T02:04:03.043Z,0
2017-03-09T02:05:03.467Z,0
2017-03-09T02:06:02.968Z,0
2017-03-09T02:07:03.827Z,0
2017-03-09T02:08:03.316Z,0
2017-03-09T02:09:03.326Z,0
2017-03-09T02:10:02.485Z,0
2017-03-09T02:11:02.482Z,0
2017-03-09T02:12:03.225Z,0
2017-03-09T02:13:02.856Z,0
2017-03-09T02:14:03.173Z,0
2017-03-09T02:15:02.833Z,0
2017-03-09T02:16:02.762Z,0
2017-03-09T02:17:03.623Z,0
2017-03-09T02:18:02.690Z,0
2017-03-09T02:19:02.702Z,0
2017-03-09T02:20:02.707Z,0
2017-03-09T02:21:02.642Z,0
2017-03-09T02:22:03.011Z,0
2017-03-09T02:23:02.974Z,0
2017-03-09T02:24:03.392Z,0
2017-03-09T02:25:03.028Z,0
2017-03-09T02:26:03.038Z,0
2017-03-09T02:27:02.945Z,0
2017-03-09T02:28:02.867Z,0
2017-03-09T02:29:02.877Z,0
2017-03-09T02:30:02.840Z,0
2017-03-09T02:31:03.345Z,0
2017-03-09T02:32:02.774Z,0
2017-03-09T02:33:02.404Z,0
2017-03-09T02:34:02.758Z,0
2017-03-09T02:35:03.193Z,0
2017-03-09T02:36:02.764Z,0
2017-03-09T02:37:02.662Z,0
2017-03-09T02:38:01.969Z,0
2017-03-09T02:39:02.260Z,0
2017-03-09T02:40:02.288Z,0
2017-03-09T02:41:01.824Z,0
2017-03-09T02:42:02.551Z,0
2017-03-09T02:43:02.551Z,0
2017-03-09T02:44:02.113Z,0
2017-03-09T02:45:02.097Z,0
2017-03-09T02:46:02.866Z,0
2017-03-09T02:47:02.888Z,0
2017-03-09T02:48:02.823Z,0
2017-03-09T02:49:02.004Z,0
2017-03-09T02:50:02.365Z,0
2017-03-09T02:51:02.365Z,0
2017-03-09T02:52:02.334Z,0
2017-03-09T02:53:01.906Z,0
2017-03-09T02:54:02.272Z,0
2017-03-09T02:55:02.275Z,0
2017-03-09T02:56:02.222Z,0
2017-03-09T02:57:02.280Z,0
2017-03-09T02:58:01.444Z,0
2017-03-09T02:59:02.202Z,0
2017-03-09T03:00:01.009Z,0
2017-03-09T03:01:01.755Z,0
2017-03-09T03:02:01.342Z,0
2017-03-09T03:03:01.302Z,0
2017-03-09T03:04:02.049Z,0
2017-03-09T03:05:02.017Z,0
2017-03-09T03:06:01.622Z,0
2017-03-09T03:07:01.995Z,0
2017-03-09T03:08:02.448Z,0
2017-03-09T03:09:02.357Z,0
2017-03-09T03:10:01.904Z,0
2017-03-09T03:11:02.320Z,0
2017-03-09T03:12:02.337Z,0
2017-03-09T03:13:01.451Z,0
2017-03-09T03:14:01.800Z,0
2017-03-09T03:15:02.192Z,0
2017-03-09T03:16:02.229Z,0
2017-03-09T03:17:00.966Z,0
2017-03-09T03:18:01.342Z,0
2017-03-09T03:19:01.868Z,0
2017-03-09T03:20:01.669Z,0
2017-03-09T03:21:02.082Z,0
2017-03-09T03:22:01.268Z,0
2017-03-09T03:23:00.442Z,0
2017-03-09T03:24:00.851Z,0
2017-03-09T03:25:00.845Z,0
2017-03-09T03:26:01.541Z,0
2017-03-09T03:27:01.531Z,0
2017-03-09T03:28:01.499Z,0
2017-03-09T03:29:01.501Z,0
2017-03-09T03:30:01.454Z,0
2017-03-09T03:31:01.424Z,0
2017-03-09T03:32:00.635Z,0
2017-03-09T03:33:00.988Z,0
2017-03-09T03:34:01.364Z,0
2017-03-09T03:35:01.335Z,0
2017-03-09T03:36:01.363Z,0
2017-03-09T03:37:01.697Z,0
2017-03-09T03:38:01.264Z,0
2017-03-09T03:39:01.223Z,0
2017-03-09T03:40:01.616Z,0
2017-03-09T03:41:01.240Z,0
2017-03-09T03:42:00.843Z,0
2017-03-09T03:43:01.169Z,0
2017-03-09T03:44:00.839Z,0
2017-03-09T03:45:01.089Z,0
2017-03-09T03:46:00.715Z,0
2017-03-09T03:47:01.076Z,0
2017-03-09T03:48:00.659Z,0
2017-03-09T03:49:01.429Z,0
2017-03-09T03:50:00.990Z,0
2017-03-09T03:51:00.971Z,0
2017-03-09T03:52:00.602Z,0
2017-03-09T03:53:00.536Z,0
2017-03-09T03:54:00.947Z,0
2017-03-09T03:55:00.563Z,0
2017-03-09T03:56:01.249Z,0
2017-03-09T03:57:00.842Z,0
2017-03-09T03:58:00.789Z,0
2017-03-09T03:59:00.100Z,0
2017-03-09T04:00:01.144Z,0
2017-03-09T04:01:00.754Z,0
2017-03-09T04:02:00.420Z,0
2017-03-09T04:03:01.092Z,0
2017-03-09T04:04:00.369Z,0
2017-03-09T04:05:00.259Z,0
2017-03-09T04:06:00.669Z,0
2017-03-09T04:07:00.628Z,0
2017-03-09T04:07:59.815Z,0
2017-03-09T04:08:59.795Z,0
2017-03-09T04:10:00.201Z,0
2017-03-09T04:11:00.168Z,0
2017-03-09T04:12:00.506Z,0
2017-03-09T04:13:00.455Z,0
2017-03-09T04:14:00.435Z,0
2017-03-09T04:15:00.894Z,0
2017-03-09T04:16:00.410Z,0
2017-03-09T04:16:59.630Z,0
2017-03-09T04:18:00.368Z,0
2017-03-09T04:19:00.329Z,0
2017-03-09T04:19:59.547Z,0
2017-03-09T04:21:00.793Z,0
2017-03-09T04:22:00.650Z,0
2017-03-09T04:22:59.848Z,0
2017-03-09T04:24:00.243Z,0
2017-03-09T04:25:00.605Z,0
2017-03-09T04:26:00.563Z,0
2017-03-09T04:27:00.195Z,0
2017-03-09T04:28:00.126Z,0
2017-03-09T04:29:00.520Z,0
2017-03-09T04:30:00.094Z,0
2017-03-09T04:31:00.073Z,0
2017-03-09T04:32:00.468Z,0
2017-03-09T04:33:00.015Z,0
2017-03-09T04:33:59.615Z,0
2017-03-09T04:34:59.599Z,0
2017-03-09T04:35:59.963Z,0
2017-03-09T04:36:59.939Z,0
2017-03-09T04:37:59.539Z,0
2017-03-09T04:38:59.520Z,0
2017-03-09T04:39:59.850Z,0
2017-03-09T04:41:00.278Z,0
2017-03-09T04:41:59.041Z,0
2017-03-09T04:43:00.190Z,0
2017-03-09T04:43:59.387Z,0
2017-03-09T04:44:59.815Z,0
2017-03-09T04:45:59.395Z,0
2017-03-09T04:46:59.386Z,0
2017-03-09T04:47:59.304Z,0
2017-03-09T04:49:00.044Z,0
2017-03-09T04:49:59.259Z,0
2017-03-09T04:50:59.593Z,0
2017-03-09T04:52:00.052Z,0
2017-03-09T04:52:58.468Z,0
2017-03-09T04:53:59.551Z,0
2017-03-09T04:54:59.131Z,0
2017-03-09T04:55:59.492Z,0
2017-03-09T04:56:59.485Z,0
2017-03-09T04:57:58.313Z,0
2017-03-09T04:58:59.481Z,0
2017-03-09T04:59:59.780Z,0
2017-03-09T05:00:59.860Z,0
2017-03-09T05:01:59.357Z,0
2017-03-09T05:02:58.177Z,0
2017-03-09T05:03:59.316Z,0
2017-03-09T05:04:58.955Z,0
2017-03-09T05:05:59.275Z,0
2017-03-09T05:06:58.913Z,0
2017-03-09T05:07:58.833Z,0
2017-03-09T05:08:58.433Z,0
2017-03-09T05:09:58.807Z,0
2017-03-09T05:10:59.153Z,0
2017-03-09T05:11:59.529Z,0
2017-03-09T05:12:59.623Z,0
2017-03-09T05:13:58.740Z,0
2017-03-09T05:14:58.753Z,0
2017-03-09T05:15:59.059Z,0
2017-03-09T05:16:59.403Z,0
2017-03-09T05:17:59.014Z,0
2017-03-09T05:18:59.382Z,0
2017-03-09T05:19:58.968Z,0
2017-03-09T05:20:59.321Z,0
2017-03-09T05:21:59.266Z,0
2017-03-09T05:22:58.470Z,0
2017-03-09T05:23:58.071Z,0
2017-03-09T05:24:58.947Z,0
2017-03-09T05:25:58.029Z,0
2017-03-09T05:26:59.179Z,0
2017-03-09T05:27:59.254Z,0
2017-03-09T05:28:58.353Z,0
2017-03-09T05:29:59.101Z,0
2017-03-09T05:30:58.687Z,0
2017-03-09T05:31:58.281Z,0
2017-03-09T05:32:58.311Z,0
2017-03-09T05:33:58.696Z,0
2017-03-09T05:34:58.279Z,0
2017-03-09T05:35:58.179Z,0
2017-03-09T05:36:57.385Z,0
2017-03-09T05:37:58.158Z,0
2017-03-09T05:38:58.591Z,0
2017-03-09T05:39:59.039Z,0
2017-03-09T05:40:58.076Z,0
2017-03-09T05:41:58.066Z,0
2017-03-09T05:42:57.626Z,0
2017-03-09T05:43:58.395Z,0
2017-03-09T05:44:58.856Z,0
2017-03-09T05:45:58.342Z,0
2017-03-09T05:46:58.334Z,0
2017-03-09T05:47:57.958Z,0
2017-03-09T05:48:58.275Z,0
2017-03-09T05:49:58.313Z,0
2017-03-09T05:50:57.840Z,0
2017-03-09T05:51:57.820Z,0
2017-03-09T05:52:58.172Z,0
2017-03-09T05:53:57.760Z,0
2017-03-09T05:54:58.542Z,0
2017-03-09T05:55:58.219Z,0
2017-03-09T05:56:57.744Z,0
2017-03-09T05:57:57.781Z,0
2017-03-09T05:58:58.082Z,0
2017-03-09T05:59:58.029Z,0
2017-03-09T06:00:58.469Z,0
2017-03-09T06:01:57.215Z,0
2017-03-09T06:02:58.023Z,0
2017-03-09T06:03:58.399Z,0
2017-03-09T06:04:57.929Z,0
2017-03-09T06:05:57.533Z,0
2017-03-09T06:06:57.997Z,0
2017-03-09T06:07:57.876Z,0
2017-03-09T06:08:57.814Z,0
2017-03-09T06:09:58.212Z,5
2017-03-09T06:10:57.811Z,5
2017-03-09T06:11:57.500Z,5
2017-03-09T06:12:58.150Z,5
2017-03-09T06:13:58.234Z,5
2017-03-09T06:14:57.692Z,5
2017-03-09T06:15:57.658Z,5
2017-03-09T06:16:57.669Z,5
2017-03-09T06:17:57.697Z,5
2017-03-09T06:18:58.044Z,5
2017-03-09T06:19:57.179Z,5
2017-03-09T06:20:57.526Z,5
2017-03-09T06:21:57.214Z,5
2017-03-09T06:22:57.581Z,5
2017-03-09T06:23:57.935Z,5
2017-03-09T06:24:57.565Z,5
2017-03-09T06:25:57.024Z,10
2017-03-09T06:26:57.788Z,10
2017-03-09T06:27:57.012Z,10
2017-03-09T06:28:56.973Z,10
2017-03-09T06:29:57.715Z,10
2017-03-09T06:30:57.701Z,10
2017-03-09T06:31:56.935Z,10
2017-03-09T06:32:57.663Z,10
2017-03-09T06:33:56.846Z,10
2017-03-09T06:34:57.210Z,10
2017-03-09T06:35:57.202Z,10
2017-03-09T06:36:57.552Z,15
2017-03-09T06:37:57.612Z,15
2017-03-09T06:38:56.773Z,15
2017-03-09T06:39:57.555Z,15
2017-03-09T06:40:56.697Z,15
2017-03-09T06:41:56.699Z,15
2017-03-09T06:42:57.427Z,15
2017-03-09T06:43:57.507Z,15
2017-03-09T06:44:57.018Z,15
2017-03-09T06:45:56.992Z,15
2017-03-09T06:46:56.585Z,15
2017-03-09T06:47:56.117Z,20
2017-03-09T06:48:56.973Z,20
2017-03-09T06:49:56.876Z,20
2017-03-09T06:50:57.315Z,20
2017-03-09T06:51:57.368Z,20
2017-03-09T06:52:57.192Z,20
2017-03-09T06:53:56.398Z,20
2017-03-09T06:54:56.373Z,20
2017-03-09T06:55:56.006Z,20
2017-03-09T06:56:56.693Z,25
2017-03-09T06:57:55.948Z,25
2017-03-09T06:58:56.677Z,25
2017-03-09T06:59:56.685Z,25
2017-03-09T07:00:55.848Z,25
2017-03-09T07:01:56.662Z,25
2017-03-09T07:02:57.069Z,25
2017-03-09T07:03:56.979Z,25
2017-03-09T07:04:56.978Z,25
2017-03-09T07:05:56.899Z,25
2017-03-09T07:06:56.120Z,30
2017-03-09T07:07:56.959Z,30
2017-03-09T07:08:56.912Z,30
2017-03-09T07:09:56.408Z,30
2017-03-09T07:10:56.456Z,30
2017-03-09T07:11:56.372Z,30
2017-03-09T07:12:56.362Z,30
2017-03-09T07:13:56.313Z,30
2017-03-09T07:14:56.360Z,30
2017-03-09T07:15:56.293Z,35
2017-03-09T07:16:56.235Z,35
2017-03-09T07:17:55.796Z,35
2017-03-09T07:18:56.268Z,35
2017-03-09T07:19:56.147Z,40
2017-03-09T07:20:56.195Z,40
2017-03-09T07:21:55.696Z,40
2017-03-09T07:22:55.394Z,40
2017-03-09T07:23:56.058Z,40
2017-03-09T07:24:56.085Z,40
2017-03-09T07:25:55.685Z,40
2017-03-09T07:26:54.853Z,40
2017-03-09T07:27:55.980Z,40
2017-03-09T07:28:55.966Z,40
2017-03-09T07:29:56.381Z,40
2017-03-09T07:30:55.899Z,40
2017-03-09T07:31:56.255Z,40
2017-03-09T07:32:55.457Z,45
2017-03-09T07:33:55.457Z,45
2017-03-09T07:34:55.800Z,45
2017-03-09T07:35:55.783Z,45
2017-03-09T07:36:56.154Z,45
2017-03-09T07:37:55.394Z,45
2017-03-09T07:38:55.705Z,45
2017-03-09T07:39:56.184Z,50
2017-03-09T07:40:56.052Z,50
2017-03-09T07:41:55.626Z,50
2017-03-09T07:42:55.294Z,55
2017-03-09T07:43:55.216Z,55
2017-03-09T07:44:55.179Z,55
2017-03-09T07:45:54.880Z,60
2017-03-09T07:46:55.525Z,60
2017-03-09T07:47:55.110Z,65
2017-03-09T07:48:55.870Z,70
2017-03-09T07:49:55.865Z,75
2017-03-09T07:50:55.459Z,75
2017-03-09T07:51:55.001Z,80
2017-03-09T07:52:55.404Z,80
2017-03-09T07:53:55.471Z,85
2017-03-09T07:54:54.977Z,85
2017-03-09T07:55:55.333Z,90
2017-03-09T07:56:55.692Z,85
2017-03-09T07:57:54.505Z,95
2017-03-09T07:58:55.652Z,90
2017-03-09T07:59:55.268Z,95
2017-03-09T08:00:54.835Z,90
2017-03-09T08:01:55.205Z,95
2017-03-09T08:02:54.832Z,100
2017-03-09T08:03:54.351Z,95
2017-03-09T08:04:55.532Z,105
2017-03-09T08:05:54.731Z,105
2017-03-09T08:06:55.458Z,110
2017-03-09T08:07:55.442Z,115
2017-03-09T08:08:55.056Z,120
2017-03-09T08:09:54.627Z,125
2017-03-09T08:10:54.593Z,135
2017-03-09T08:11:54.977Z,195
2017-03-09T08:12:54.618Z,165
2017-03-09T08:13:54.926Z,275
2017-03-09T08:14:54.506Z,190
2017-03-09T08:15:53.696Z,260
2017-03-09T08:16:54.451Z,255
2017-03-09T08:17:54.815Z,450
2017-03-09T08:18:54.414Z,470
2017-03-09T08:19:54.003Z,665
2017-03-09T08:20:54.763Z,780
2017-03-09T08:21:55.138Z,535
2017-03-09T08:22:54.726Z,870
2017-03-09T08:23:55.072Z,715
2017-03-09T08:24:55.167Z,965
2017-03-09T08:25:55.310Z,865
2017-03-09T08:26:54.789Z,920
2017-03-09T08:27:54.743Z,1020
2017-03-09T08:28:54.293Z,1160
2017-03-09T08:29:54.258Z,1200
2017-03-09T08:30:55.071Z,1255
2017-03-09T08:31:54.937Z,1315
2017-03-09T08:32:54.941Z,1390
2017-03-09T08:33:54.530Z,1370
2017-03-09T08:34:54.502Z,1325
2017-03-09T08:35:54.486Z,1330
2017-03-09T08:36:54.655Z,1255
2017-03-09T08:39:54.056Z,1355
2017-03-09T08:40:54.843Z,1435
2017-03-09T08:41:54.453Z,1415
2017-03-09T08:42:54.420Z,975
2017-03-09T08:43:54.382Z,530
2017-03-09T08:44:54.521Z,655
2017-03-09T08:45:54.003Z,510
2017-03-09T08:46:54.450Z,420
2017-03-09T08:47:54.719Z,500
2017-03-09T08:48:54.800Z,615
2017-03-09T08:49:53.916Z,1180
2017-03-09T08:50:54.718Z,1470
2017-03-09T08:51:54.319Z,660
2017-03-09T08:52:54.670Z,510
2017-03-09T08:53:53.476Z,435
2017-03-09T08:54:53.876Z,470
2017-03-09T08:55:53.945Z,325
2017-03-09T08:56:54.287Z,245
2017-03-09T08:57:54.635Z,180
2017-03-09T08:58:53.033Z,145
2017-03-09T08:59:54.186Z,135
2017-03-09T09:00:53.772Z,135
2017-03-09T09:01:53.763Z,140
2017-03-09T09:02:54.238Z,145
2017-03-09T09:03:53.725Z,155
2017-03-09T09:04:54.110Z,160
2017-03-09T09:05:53.320Z,185
2017-03-09T09:06:53.666Z,255
2017-03-09T09:07:53.663Z,305
2017-03-09T09:08:54.423Z,410
2017-03-09T09:09:53.268Z,1205
2017-03-09T09:10:53.627Z,1150
2017-03-09T09:11:53.596Z,525
2017-03-09T09:12:53.953Z,440
2017-03-09T09:13:54.430Z,220
2017-03-09T09:14:53.630Z,180
2017-03-09T09:15:53.925Z,170
2017-03-09T09:16:52.753Z,180
2017-03-09T09:17:53.132Z,225
2017-03-09T09:18:54.264Z,240
2017-03-09T09:19:53.843Z,310
2017-03-09T09:20:53.855Z,305
2017-03-09T09:21:53.454Z,270
2017-03-09T09:22:54.195Z,265
2017-03-09T09:23:53.782Z,280
2017-03-09T09:24:53.390Z,315
2017-03-09T09:25:54.153Z,225
2017-03-09T09:26:53.798Z,240
2017-03-09T09:27:53.726Z,185
2017-03-09T09:28:53.004Z,150
2017-03-09T09:29:54.088Z,140
2017-03-09T09:30:53.752Z,175
2017-03-09T09:31:52.946Z,185
2017-03-09T09:32:53.640Z,165
2017-03-09T09:33:53.626Z,140
2017-03-09T09:34:53.992Z,130
2017-03-09T09:35:53.216Z,115
2017-03-09T09:36:53.608Z,110
2017-03-09T09:37:53.161Z,110
2017-03-09T09:38:53.515Z,115
2017-03-09T09:39:53.940Z,120
2017-03-09T09:40:52.728Z,125
2017-03-09T09:41:53.513Z,120
2017-03-09T09:42:53.061Z,110
2017-03-09T09:43:53.051Z,100
2017-03-09T09:44:53.136Z,105
2017-03-09T09:45:53.432Z,110
2017-03-09T09:46:52.996Z,105
2017-03-09T09:47:53.388Z,95
2017-03-09T09:48:53.106Z,90
2017-03-09T09:49:53.326Z,90
2017-03-09T09:50:53.321Z,90
2017-03-09T09:51:53.794Z,95
2017-03-09T09:52:53.648Z,95
2017-03-09T09:53:52.885Z,105
2017-03-09T09:54:53.296Z,105
2017-03-09T09:55:53.278Z,95
2017-03-09T09:56:53.246Z,90
2017-03-09T09:57:53.183Z,85
2017-03-09T09:58:52.771Z,85
2017-03-09T09:59:53.233Z,80
2017-03-09T10:00:53.121Z,80
2017-03-09T10:01:52.703Z,85
2017-03-09T10:02:53.073Z,85
2017-03-09T10:03:53.071Z,85
2017-03-09T10:04:52.275Z,80
2017-03-09T10:05:53.123Z,80
2017-03-09T10:06:53.409Z,80
2017-03-09T10:07:53.070Z,80
2017-03-09T10:08:52.976Z,85
2017-03-09T10:09:52.587Z,85
2017-03-09T10:10:52.537Z,85
2017-03-09T10:11:52.496Z,85
2017-03-09T10:12:52.886Z,85
2017-03-09T10:13:52.095Z,85
2017-03-09T10:14:53.226Z,85
2017-03-09T10:15:53.211Z,90
2017-03-09T10:16:52.435Z,95
2017-03-09T10:17:52.403Z,80
2017-03-09T10:18:52.380Z,60
2017-03-09T10:19:52.771Z,50
2017-03-09T10:20:51.931Z,45
2017-03-09T10:21:53.083Z,45
2017-03-09T10:22:52.683Z,50
2017-03-09T10:23:52.300Z,45
2017-03-09T10:24:52.638Z,50
2017-03-09T10:25:52.256Z,55
2017-03-09T10:26:52.657Z,55
2017-03-09T10:27:52.993Z,55
2017-03-09T10:28:53.004Z,50
2017-03-09T10:29:52.578Z,45
2017-03-09T10:30:52.544Z,45
2017-03-09T10:31:52.906Z,50
2017-03-09T10:32:52.896Z,50
2017-03-09T10:33:52.456Z,50
2017-03-09T10:34:52.880Z,50
2017-03-09T10:35:52.855Z,50
2017-03-09T10:36:52.055Z,50
2017-03-09T10:37:52.417Z,50
2017-03-09T10:38:52.367Z,50
2017-03-09T10:39:52.870Z,45
2017-03-09T10:40:52.345Z,45
2017-03-09T10:41:52.293Z,50
2017-03-09T10:42:52.736Z,70
2017-03-09T10:43:52.707Z,90
2017-03-09T10:44:51.075Z,95
2017-03-09T10:45:52.241Z,100
2017-03-09T10:46:52.205Z,90
2017-03-09T10:47:51.818Z,80
2017-03-09T10:48:52.157Z,70
2017-03-09T10:49:51.747Z,55
2017-03-09T10:50:52.537Z,55
2017-03-09T10:51:52.526Z,55
2017-03-09T10:52:52.467Z,55
2017-03-09T10:53:52.105Z,60
2017-03-09T10:54:52.045Z,60
2017-03-09T10:55:51.638Z,60
2017-03-09T10:56:52.090Z,55
2017-03-09T10:57:52.443Z,50
2017-03-09T10:58:52.368Z,50
2017-03-09T10:59:52.433Z,50
2017-03-09T11:00:50.781Z,55
2017-03-09T11:01:51.888Z,55
2017-03-09T11:02:52.285Z,45
2017-03-09T11:03:51.840Z,40
2017-03-09T11:04:51.453Z,40
2017-03-09T11:05:51.432Z,40
2017-03-09T11:06:51.442Z,40
2017-03-09T11:07:51.759Z,45
2017-03-09T11:08:51.778Z,45
2017-03-09T11:09:51.750Z,45
2017-03-09T11:10:51.730Z,50
2017-03-09T11:11:51.306Z,55
2017-03-09T11:12:52.085Z,65
2017-03-09T11:13:52.036Z,65
2017-03-09T11:14:52.025Z,55
2017-03-09T11:15:50.832Z,50
2017-03-09T11:16:51.196Z,55
2017-03-09T11:17:51.212Z,65
2017-03-09T11:18:51.682Z,70
2017-03-09T11:19:51.948Z,70
2017-03-09T11:20:50.742Z,70
2017-03-09T11:21:51.492Z,75
2017-03-09T11:22:51.463Z,65
2017-03-09T11:23:51.542Z,55
2017-03-09T11:24:51.455Z,55
2017-03-09T11:25:51.101Z,60
2017-03-09T11:26:51.411Z,60
2017-03-09T11:27:51.759Z,60
2017-03-09T11:28:50.588Z,60
2017-03-09T11:29:51.349Z,60
2017-03-09T11:30:51.309Z,65
2017-03-09T11:31:51.415Z,65
2017-03-09T11:32:50.895Z,70
2017-03-09T11:33:50.944Z,65
2017-03-09T11:34:51.220Z,55
2017-03-09T11:35:50.874Z,55
2017-03-09T11:36:51.564Z,55
2017-03-09T11:37:50.432Z,60
2017-03-09T11:38:50.762Z,60
2017-03-09T11:39:51.229Z,50
2017-03-09T11:40:50.748Z,50
2017-03-09T11:41:51.461Z,50
2017-03-09T11:42:51.087Z,60
2017-03-09T11:43:51.179Z,55
2017-03-09T11:44:50.670Z,50
2017-03-09T11:45:51.122Z,40
2017-03-09T11:46:51.100Z,40
2017-03-09T11:47:50.958Z,45
2017-03-09T11:48:51.319Z,45
2017-03-09T11:49:51.327Z,50
2017-03-09T11:50:50.976Z,55
2017-03-09T11:51:50.966Z,55
2017-03-09T11:52:50.116Z,45
2017-03-09T11:53:50.064Z,50
2017-03-09T11:54:51.222Z,50
2017-03-09T11:55:51.205Z,45
2017-03-09T11:56:50.023Z,40
2017-03-09T11:57:51.167Z,40
2017-03-09T11:58:50.389Z,45
2017-03-09T11:59:50.338Z,50
2017-03-09T12:00:50.301Z,55
2017-03-09T12:01:49.919Z,50
2017-03-09T12:02:50.719Z,50
2017-03-09T12:03:50.682Z,50
2017-03-09T12:04:49.864Z,50
2017-03-09T12:05:50.617Z,45
2017-03-09T12:06:50.954Z,50
2017-03-09T12:07:50.570Z,55
2017-03-09T12:08:50.922Z,65
2017-03-09T12:09:50.527Z,65
2017-03-09T12:10:50.570Z,55
2017-03-09T12:11:50.118Z,65
2017-03-09T12:12:50.855Z,65
2017-03-09T12:13:50.464Z,55
2017-03-09T12:14:50.429Z,55
2017-03-09T12:15:50.414Z,50
2017-03-09T12:16:50.015Z,55
2017-03-09T12:17:50.350Z,70
2017-03-09T12:18:50.352Z,85
2017-03-09T12:19:50.715Z,85
2017-03-09T12:20:49.931Z,80
2017-03-09T12:21:50.284Z,85
2017-03-09T12:22:50.660Z,90
2017-03-09T12:23:49.526Z,80
2017-03-09T12:24:50.639Z,75
2017-03-09T12:25:50.599Z,75
2017-03-09T12:26:50.249Z,75
2017-03-09T12:27:50.586Z,90
2017-03-09T12:28:50.159Z,80
2017-03-09T12:29:50.117Z,80
2017-03-09T12:30:50.485Z,90
2017-03-09T12:31:49.805Z,90
2017-03-09T12:32:50.506Z,85
2017-03-09T12:33:50.071Z,90
2017-03-09T12:34:50.026Z,90
2017-03-09T12:35:49.292Z,90
2017-03-09T12:36:48.814Z,85
2017-03-09T12:37:50.403Z,80
2017-03-09T12:38:49.193Z,65
2017-03-09T12:39:50.333Z,55
2017-03-09T12:40:49.522Z,50
2017-03-09T12:41:49.901Z,45
2017-03-09T12:42:49.867Z,40
2017-03-09T12:43:49.863Z,35
2017-03-09T12:44:49.452Z,35
2017-03-09T12:45:49.827Z,35
2017-03-09T12:46:49.798Z,45
2017-03-09T12:47:49.387Z,45
2017-03-09T12:48:50.140Z,50
2017-03-09T12:49:49.366Z,55
2017-03-09T12:50:49.334Z,55
2017-03-09T12:51:49.702Z,65
2017-03-09T12:52:49.696Z,55
2017-03-09T12:53:49.384Z,55
2017-03-09T12:54:49.048Z,65
2017-03-09T12:55:49.613Z,60
2017-03-09T12:56:49.993Z,55
2017-03-09T12:57:49.622Z,50
2017-03-09T12:58:48.893Z,60
2017-03-09T12:59:49.144Z,50
2017-03-09T13:00:49.550Z,45
2017-03-09T13:01:49.189Z,40
2017-03-09T13:02:49.080Z,35
2017-03-09T13:03:49.839Z,35
2017-03-09T13:04:49.829Z,30
2017-03-09T13:05:49.488Z,25
2017-03-09T13:06:49.406Z,30
2017-03-09T13:07:49.376Z,40
2017-03-09T13:08:49.403Z,35
2017-03-09T13:09:49.445Z,40
2017-03-09T13:10:49.334Z,50
2017-03-09T13:11:49.721Z,45
2017-03-09T13:12:49.674Z,35
2017-03-09T13:13:48.960Z,30
2017-03-09T13:14:48.464Z,30
2017-03-09T13:15:49.616Z,40
2017-03-09T13:16:48.827Z,35
2017-03-09T13:17:48.783Z,40
2017-03-09T13:18:49.195Z,40
2017-03-09T13:19:49.567Z,45
2017-03-09T13:20:48.739Z,40
2017-03-09T13:21:47.956Z,35
2017-03-09T13:22:48.723Z,35
2017-03-09T13:23:49.128Z,40
2017-03-09T13:24:48.669Z,45
2017-03-09T13:25:49.089Z,50
2017-03-09T13:26:49.385Z,50
2017-03-09T13:27:48.235Z,50
2017-03-09T13:28:49.088Z,50
2017-03-09T13:29:49.364Z,45
2017-03-09T13:30:48.555Z,45
2017-03-09T13:31:48.544Z,45
2017-03-09T13:32:48.533Z,40
2017-03-09T13:33:48.497Z,45
2017-03-09T13:34:48.941Z,45
2017-03-09T13:35:48.588Z,45
2017-03-09T13:36:48.471Z,50
2017-03-09T13:37:48.451Z,45
2017-03-09T13:38:48.865Z,45
2017-03-09T13:39:48.776Z,40
2017-03-09T13:40:48.887Z,35
2017-03-09T13:41:48.798Z,30
2017-03-09T13:42:48.316Z,35
2017-03-09T13:43:48.352Z,30
2017-03-09T13:44:48.763Z,30
2017-03-09T13:45:47.878Z,30
2017-03-09T13:46:48.246Z,30
2017-03-09T13:47:47.864Z,30
2017-03-09T13:48:48.223Z,30
2017-03-09T13:49:48.185Z,35
2017-03-09T13:50:48.655Z,35
2017-03-09T13:51:48.193Z,40
2017-03-09T13:52:48.150Z,35
2017-03-09T13:53:48.111Z,40
2017-03-09T13:54:48.567Z,45
2017-03-09T13:55:48.078Z,60
2017-03-09T13:56:48.437Z,65
2017-03-09T13:57:48.041Z,65
2017-03-09T13:58:47.618Z,60
2017-03-09T13:59:48.378Z,50
2017-03-09T14:00:48.381Z,70
2017-03-09T14:01:48.797Z,75
2017-03-09T14:02:48.417Z,65
2017-03-09T14:03:48.307Z,50
2017-03-09T14:04:48.679Z,55
2017-03-09T14:05:48.276Z,55
2017-03-09T14:06:47.526Z,55
2017-03-09T14:07:48.210Z,55
2017-03-09T14:08:48.292Z,55
2017-03-09T14:09:47.846Z,55
2017-03-09T14:10:48.613Z,50
2017-03-09T14:11:48.183Z,50
2017-03-09T14:12:48.132Z,40
2017-03-09T14:13:48.501Z,40
2017-03-09T14:14:47.751Z,40
2017-03-09T14:15:48.564Z,35
2017-03-09T14:16:48.094Z,30
2017-03-09T14:17:47.658Z,30
2017-03-09T14:18:47.336Z,35
2017-03-09T14:19:48.390Z,35
2017-03-09T14:20:47.596Z,35
2017-03-09T14:21:47.976Z,30
2017-03-09T14:22:47.950Z,25
2017-03-09T14:23:47.542Z,25
2017-03-09T14:24:47.505Z,20
2017-03-09T14:25:47.501Z,20
2017-03-09T14:26:47.176Z,15